createdAt,value
2019-03-17T00:00:49.195Z,2.72
2019-03-17T00:03:18.010Z,2.83
2019-03-17T00:05:46.876Z,2.40
2019-03-17T00:08:15.765Z,2.58
2019-03-17T00:10:48.345Z,2.77
2019-03-17T00:13:17.873Z,2.67
2019-03-17T00:15:49.498Z,2.70
2019-03-17T00:18:18.489Z,4.30
2019-03-17T00:20:47.383Z,4.10
2019-03-17T00:23:18.690Z,8.73
2019-03-17T00:25:48.544Z,4.83
2019-03-17T00:28:18.292Z,3.02
2019-03-17T00:30:47.241Z,2.92
2019-03-17T00:33:16.133Z,3.27
2019-03-17T00:35:45.023Z,3.45
2019-03-17T00:38:13.820Z,2.60
2019-03-17T00:40:42.698Z,10.95
2019-03-17T00:43:15.172Z,22.75
2019-03-17T00:45:48.261Z,32.67
2019-03-17T00:48:18.063Z,15.88
2019-03-17T00:50:50.864Z,5.28
2019-03-17T00:53:23.930Z,4.87
2019-03-17T00:55:55.294Z,4.70
2019-03-17T00:58:25.065Z,5.37
2019-03-17T01:00:55.012Z,5.20
2019-03-17T01:03:27.343Z,4.37
2019-03-17T01:05:56.276Z,4.70
2019-03-17T01:08:25.112Z,4.22
2019-03-17T01:10:54.983Z,3.92
2019-03-17T01:13:23.867Z,3.98
2019-03-17T01:15:52.758Z,4.60
2019-03-17T01:18:23.495Z,4.05
2019-03-17T01:20:52.286Z,4.05
2019-03-17T01:23:21.270Z,2.67
2019-03-17T01:25:50.262Z,4.62
2019-03-17T01:28:19.256Z,3.62
2019-03-17T01:30:48.145Z,3.00
2019-03-17T01:33:19.597Z,2.77
2019-03-17T01:35:48.589Z,2.90
2019-03-17T01:38:20.056Z,3.52
2019-03-17T01:40:49.854Z,3.72
2019-03-17T01:43:22.640Z,3.77
2019-03-17T01:45:51.527Z,4.30
2019-03-17T01:48:23.492Z,3.72
2019-03-17T01:50:53.506Z,4.10
2019-03-17T01:53:22.495Z,3.20
2019-03-17T01:55:51.382Z,3.45
2019-03-17T01:58:20.375Z,2.80
2019-03-17T02:00:49.367Z,2.90
2019-03-17T02:03:18.273Z,3.15
2019-03-17T02:05:47.149Z,3.02
2019-03-17T02:08:15.955Z,2.83
2019-03-17T02:10:44.826Z,4.00
2019-03-17T02:13:15.780Z,3.65
2019-03-17T02:15:46.641Z,4.53
2019-03-17T02:18:14.669Z,5.45
2019-03-17T02:20:43.559Z,3.67
2019-03-17T02:23:14.917Z,3.17
2019-03-17T02:25:46.262Z,2.62
2019-03-17T02:28:15.180Z,3.25
2019-03-17T02:30:47.314Z,3.02
2019-03-17T02:33:22.608Z,2.75
2019-03-17T02:35:55.742Z,2.80
2019-03-17T02:38:24.441Z,2.62
2019-03-17T02:40:54.341Z,2.37
2019-03-17T02:43:24.459Z,2.33
2019-03-17T02:46:02.625Z,2.20
2019-03-17T02:48:26.865Z,2.22
2019-03-17T02:50:58.401Z,2.10
2019-03-17T02:53:27.291Z,2.37
2019-03-17T02:55:56.188Z,2.02
2019-03-17T02:58:27.157Z,2.80
2019-03-17T03:00:56.520Z,2.52
2019-03-17T03:03:27.972Z,2.10
2019-03-17T03:05:56.859Z,1.87
2019-03-17T03:08:30.488Z,1.95
2019-03-17T03:13:29.268Z,2.20
2019-03-17T03:15:59.079Z,2.50
2019-03-17T03:18:27.971Z,2.37
2019-03-17T03:20:57.883Z,4.53
2019-03-17T03:23:26.773Z,2.72
2019-03-17T03:25:56.599Z,2.40
2019-03-17T03:28:25.572Z,2.62
2019-03-17T03:30:58.017Z,2.50
2019-03-17T03:33:31.713Z,4.75
2019-03-17T03:36:11.072Z,5.70
2019-03-17T03:38:34.955Z,4.37
2019-03-17T03:41:04.166Z,3.22
2019-03-17T03:43:33.354Z,2.80
2019-03-17T03:46:02.241Z,3.20
2019-03-17T03:48:32.156Z,2.60
2019-03-17T03:51:04.630Z,3.30
2019-03-17T03:53:38.465Z,3.30
2019-03-17T03:56:07.688Z,2.83
2019-03-17T03:58:36.642Z,2.30
2019-03-17T04:01:06.511Z,2.37
2019-03-17T04:03:35.434Z,2.77
2019-03-17T04:06:04.318Z,1.90
2019-03-17T04:08:35.870Z,1.70
2019-03-17T04:11:04.760Z,2.08
2019-03-17T04:13:33.571Z,2.22
2019-03-17T04:16:03.475Z,1.80
2019-03-17T04:18:32.359Z,2.27
2019-03-17T04:21:03.811Z,2.85
2019-03-17T04:23:32.694Z,1.90
2019-03-17T04:26:05.680Z,2.15
2019-03-17T04:28:36.411Z,2.30
2019-03-17T04:31:05.200Z,2.00
2019-03-17T04:33:34.191Z,2.62
2019-03-17T04:36:03.005Z,2.42
2019-03-17T04:38:32.074Z,2.50
2019-03-17T04:41:01.885Z,2.80
2019-03-17T04:43:30.776Z,2.45
2019-03-17T04:45:59.663Z,3.20
2019-03-17T04:48:28.556Z,3.05
2019-03-17T04:50:57.548Z,3.92
2019-03-17T04:53:26.440Z,3.17
2019-03-17T04:55:56.352Z,4.60
2019-03-17T04:58:25.342Z,5.72
2019-03-17T05:00:54.233Z,4.12
2019-03-17T05:03:23.125Z,4.15
2019-03-17T05:05:54.573Z,3.85
2019-03-17T05:08:24.794Z,3.83
2019-03-17T05:10:59.941Z,3.90
2019-03-17T05:13:30.855Z,3.10
2019-03-17T05:16:06.431Z,3.10
2019-03-17T05:18:35.410Z,3.45
2019-03-17T05:21:04.296Z,5.65
2019-03-17T05:23:34.214Z,4.85
2019-03-17T05:26:05.865Z,5.90
2019-03-17T05:28:39.688Z,12.45
2019-03-17T05:31:08.561Z,12.37
2019-03-17T05:33:37.454Z,15.78
2019-03-17T05:36:06.339Z,4.87
2019-03-17T05:38:35.139Z,8.88
2019-03-17T05:41:03.929Z,8.35
2019-03-17T05:43:32.807Z,5.03
2019-03-17T05:46:04.422Z,11.25
2019-03-17T05:48:34.287Z,9.55
2019-03-17T05:51:03.161Z,7.08
2019-03-17T05:53:35.022Z,7.80
2019-03-17T05:56:03.915Z,4.78
2019-03-17T05:58:32.803Z,4.92
2019-03-17T06:01:05.802Z,3.33
2019-03-17T06:03:38.056Z,3.75
2019-03-17T06:06:10.372Z,3.90
2019-03-17T06:08:43.145Z,4.40
2019-03-17T06:11:14.597Z,3.58
2019-03-17T06:13:42.939Z,3.98
2019-03-17T06:16:12.951Z,4.75
2019-03-17T06:18:44.608Z,4.92
2019-03-17T06:21:14.424Z,4.50
2019-03-17T06:23:43.306Z,4.15
2019-03-17T06:26:14.733Z,4.58
2019-03-17T06:28:44.681Z,20.48
2019-03-17T06:31:13.563Z,9.00
2019-03-17T06:33:44.865Z,3.87
2019-03-17T06:36:13.800Z,3.62
2019-03-17T06:38:42.893Z,3.12
2019-03-17T06:41:15.573Z,3.30
2019-03-17T06:43:44.466Z,4.07
2019-03-17T06:46:13.352Z,5.50
2019-03-17T06:48:43.268Z,12.15
2019-03-17T06:51:12.071Z,7.35
2019-03-17T06:53:40.945Z,6.40
2019-03-17T06:56:09.939Z,4.45
2019-03-17T06:58:38.837Z,4.90
2019-03-17T07:01:07.749Z,4.95
2019-03-17T07:03:39.110Z,4.45
2019-03-17T07:06:08.062Z,4.75
2019-03-17T07:08:40.619Z,4.15
2019-03-17T07:11:13.226Z,4.90
2019-03-17T07:13:42.103Z,6.33
2019-03-17T07:16:14.673Z,7.78
2019-03-17T07:18:44.530Z,15.90
2019-03-17T07:21:16.977Z,8.63
2019-03-17T07:23:45.857Z,10.38
2019-03-17T07:26:20.883Z,6.75
2019-03-17T07:28:49.774Z,9.93
2019-03-17T07:31:25.728Z,8.00
2019-03-17T07:33:54.620Z,22.22
2019-03-17T07:36:23.509Z,13.93
2019-03-17T07:39:11.146Z,7.17
2019-03-17T07:41:29.892Z,8.10
2019-03-17T07:44:02.570Z,5.22
2019-03-17T07:46:31.459Z,14.58
2019-03-17T07:49:02.916Z,10.40
2019-03-17T07:51:33.823Z,17.25
2019-03-17T07:54:11.976Z,7.58
2019-03-17T07:56:45.582Z,11.97
2019-03-17T08:01:42.620Z,7.90
2019-03-17T08:04:16.451Z,17.95
2019-03-17T08:06:45.416Z,14.95
2019-03-17T08:09:15.330Z,5.50
2019-03-17T08:11:48.315Z,7.20
2019-03-17T08:14:17.206Z,8.30
2019-03-17T08:16:47.944Z,5.22
2019-03-17T08:19:19.898Z,7.00
2019-03-17T08:21:48.791Z,4.37
2019-03-17T08:24:17.681Z,5.50
2019-03-17T08:26:49.970Z,4.90
2019-03-17T08:29:21.005Z,6.83
2019-03-17T08:31:49.879Z,5.47
2019-03-17T08:34:18.771Z,7.15
2019-03-17T08:36:47.762Z,7.40
2019-03-17T08:39:21.260Z,6.08
2019-03-17T08:41:56.574Z,4.95
2019-03-17T08:44:35.527Z,6.40
2019-03-17T08:47:08.104Z,5.30
2019-03-17T08:49:36.902Z,5.40
2019-03-17T08:52:07.728Z,5.35
2019-03-17T08:54:37.641Z,6.17
2019-03-17T08:57:09.807Z,4.78
2019-03-17T08:59:38.699Z,6.03
2019-03-17T09:02:09.092Z,4.90
2019-03-17T09:04:39.048Z,4.90
2019-03-17T09:07:08.541Z,4.90
2019-03-17T09:09:37.433Z,5.80
2019-03-17T09:12:06.442Z,6.37
2019-03-17T09:14:43.404Z,7.37
2019-03-17T09:17:14.720Z,5.62
2019-03-17T09:19:47.027Z,6.67
2019-03-17T09:22:16.842Z,9.23
2019-03-17T09:24:45.721Z,9.00
2019-03-17T09:27:17.113Z,7.45
2019-03-17T09:29:56.211Z,7.22
2019-03-17T09:32:29.433Z,6.50
2019-03-17T09:35:03.593Z,5.53
2019-03-17T09:37:36.130Z,4.95
2019-03-17T09:40:08.150Z,6.10
2019-03-17T09:42:38.056Z,5.25
2019-03-17T09:45:09.409Z,6.20
2019-03-17T09:47:40.966Z,5.78
2019-03-17T09:50:18.049Z,5.08
2019-03-17T09:52:49.121Z,4.65
2019-03-17T09:55:18.071Z,4.58
2019-03-17T09:57:52.288Z,4.28
2019-03-17T10:00:22.405Z,4.45
2019-03-17T10:02:53.759Z,4.47
2019-03-17T10:05:25.201Z,5.42
2019-03-17T10:07:56.651Z,4.75
2019-03-17T10:10:25.645Z,4.53
2019-03-17T10:12:56.688Z,6.62
2019-03-17T10:15:27.827Z,5.00
2019-03-17T10:17:56.628Z,5.75
2019-03-17T10:20:26.530Z,6.00
2019-03-17T10:22:55.424Z,8.48
2019-03-17T10:25:24.411Z,8.85
2019-03-17T10:27:55.965Z,10.08
2019-03-17T10:30:30.844Z,7.72
2019-03-17T10:32:59.786Z,6.10
2019-03-17T10:35:32.298Z,5.20
2019-03-17T10:38:01.148Z,8.35
2019-03-17T10:40:30.140Z,9.43
2019-03-17T10:42:59.035Z,18.17
2019-03-17T10:45:31.812Z,7.65
2019-03-17T10:48:00.803Z,7.70
2019-03-17T10:50:33.621Z,12.50
2019-03-17T10:53:07.606Z,13.83
2019-03-17T10:55:36.486Z,9.35
2019-03-17T10:58:07.541Z,9.60
2019-03-17T11:00:36.416Z,7.72
2019-03-17T11:03:06.251Z,9.68
2019-03-17T11:05:41.569Z,15.35
2019-03-17T11:08:11.483Z,36.08
2019-03-17T11:10:43.649Z,14.45
2019-03-17T11:13:13.494Z,19.15
2019-03-17T11:15:46.037Z,12.45
2019-03-17T11:18:14.929Z,11.33
2019-03-17T11:20:44.840Z,10.65
2019-03-17T11:23:13.836Z,9.10
2019-03-17T11:25:42.725Z,22.22
2019-03-17T11:28:11.716Z,11.83
2019-03-17T11:30:40.605Z,12.05
2019-03-17T11:33:09.495Z,12.03
2019-03-17T11:35:40.886Z,14.98
2019-03-17T11:38:09.841Z,22.55
2019-03-17T11:40:38.827Z,46.30
2019-03-17T11:43:08.985Z,17.25
2019-03-17T11:45:37.939Z,36.90
2019-03-17T11:48:06.832Z,25.10
2019-03-17T11:50:35.720Z,16.17
2019-03-17T11:53:04.712Z,11.68
2019-03-17T11:55:33.599Z,14.80
2019-03-17T11:58:07.087Z,15.80
2019-03-17T12:00:39.996Z,12.63
2019-03-17T12:03:12.355Z,14.95
2019-03-17T12:05:41.247Z,20.12
2019-03-17T12:08:10.137Z,10.85
2019-03-17T12:10:39.230Z,11.40
2019-03-17T12:13:11.811Z,11.75
2019-03-17T12:15:40.796Z,9.95
2019-03-17T12:18:10.716Z,17.27
2019-03-17T12:20:39.705Z,12.47
2019-03-17T12:23:16.097Z,13.18
2019-03-17T12:25:50.456Z,13.68
2019-03-17T12:28:19.485Z,17.62
2019-03-17T12:30:56.765Z,13.50
2019-03-17T12:33:25.657Z,16.25
2019-03-17T12:35:58.745Z,14.68
2019-03-17T12:38:27.633Z,14.20
2019-03-17T12:41:00.517Z,12.82
2019-03-17T12:43:32.075Z,10.80
2019-03-17T12:46:00.971Z,10.85
2019-03-17T12:48:30.977Z,14.25
2019-03-17T12:51:02.358Z,13.85
2019-03-17T12:53:34.593Z,14.58
2019-03-17T12:56:03.483Z,13.00
2019-03-17T12:58:32.373Z,15.88
2019-03-17T13:01:01.263Z,12.05
2019-03-17T13:03:31.282Z,11.93
2019-03-17T13:06:00.273Z,11.78
2019-03-17T13:08:29.161Z,11.00
2019-03-17T13:11:00.101Z,12.07
2019-03-17T13:13:28.990Z,12.85
2019-03-17T13:16:00.446Z,12.23
2019-03-17T13:18:31.657Z,11.38
2019-03-17T13:21:00.403Z,16.35
2019-03-17T13:23:31.205Z,12.68
2019-03-17T13:26:02.655Z,12.78
2019-03-17T13:28:31.648Z,11.90
2019-03-17T13:31:04.633Z,15.48
2019-03-17T13:33:33.522Z,13.95
2019-03-17T13:36:02.513Z,17.87
2019-03-17T13:38:31.405Z,13.18
2019-03-17T13:41:02.956Z,13.90
2019-03-17T13:43:31.847Z,19.65
2019-03-17T13:46:00.838Z,10.68
2019-03-17T13:48:29.730Z,18.23
2019-03-17T13:50:58.619Z,14.35
2019-03-17T13:53:35.290Z,11.88
2019-03-17T13:56:04.180Z,15.38
2019-03-17T13:58:33.074Z,17.23
2019-03-17T14:01:01.963Z,14.93
2019-03-17T14:03:30.852Z,13.95
2019-03-17T14:06:02.305Z,14.85
2019-03-17T14:08:35.651Z,13.85
2019-03-17T14:11:08.586Z,17.52
2019-03-17T14:13:45.108Z,21.57
2019-03-17T14:16:17.733Z,15.98
2019-03-17T14:18:46.616Z,16.12
2019-03-17T14:21:15.514Z,16.40
2019-03-17T14:23:44.500Z,15.10
2019-03-17T14:26:13.390Z,16.93
2019-03-17T14:28:42.279Z,16.42
2019-03-17T14:31:11.167Z,16.40
2019-03-17T14:33:40.158Z,16.65
2019-03-17T14:36:10.078Z,19.52
2019-03-17T14:38:38.965Z,20.68
2019-03-17T14:41:07.855Z,22.77
2019-03-17T14:43:43.811Z,23.05
2019-03-17T14:46:12.551Z,24.12
2019-03-17T14:48:47.636Z,19.10
2019-03-17T14:51:16.526Z,20.08
2019-03-17T14:53:45.410Z,19.30
2019-03-17T14:56:14.307Z,20.43
2019-03-17T14:58:44.187Z,23.50
2019-03-17T15:01:13.205Z,23.60
2019-03-17T15:03:42.123Z,23.95
2019-03-17T15:06:10.904Z,24.55
2019-03-17T15:08:42.537Z,25.40
2019-03-17T15:11:14.706Z,27.22
2019-03-17T15:13:43.699Z,26.57
2019-03-17T15:16:17.504Z,27.37
2019-03-17T15:18:46.399Z,24.27
2019-03-17T15:21:15.393Z,27.98
2019-03-17T15:23:44.272Z,27.13
2019-03-17T15:26:13.021Z,27.32
2019-03-17T15:28:41.952Z,24.40
2019-03-17T15:31:14.941Z,26.33
2019-03-17T15:33:43.831Z,24.85
2019-03-17T15:36:12.716Z,24.57
2019-03-17T15:38:41.608Z,28.05
2019-03-17T15:41:18.489Z,29.45
2019-03-17T15:43:44.098Z,29.50
2019-03-17T15:46:12.987Z,36.33
2019-03-17T15:48:42.097Z,35.03
2019-03-17T15:51:20.281Z,27.50
2019-03-17T15:53:41.499Z,27.95
2019-03-17T15:56:10.391Z,28.70
2019-03-17T15:58:39.278Z,29.40
2019-03-17T16:01:11.960Z,28.47
2019-03-17T16:03:43.511Z,29.35
2019-03-17T16:06:12.401Z,30.37
2019-03-17T16:08:41.393Z,28.98
2019-03-17T16:11:10.285Z,30.27
2019-03-17T16:13:39.278Z,31.07
2019-03-17T16:16:08.167Z,30.95
2019-03-17T16:18:37.063Z,31.40
2019-03-17T16:21:09.085Z,34.45
2019-03-17T16:23:38.158Z,37.83
2019-03-17T16:26:12.241Z,31.55
2019-03-17T16:28:40.988Z,30.80
2019-03-17T16:31:11.212Z,29.80
2019-03-17T16:33:40.432Z,31.15
2019-03-17T16:36:09.424Z,29.55
2019-03-17T16:38:42.046Z,30.77
2019-03-17T16:41:12.142Z,31.20
2019-03-17T16:43:41.246Z,33.45
2019-03-17T16:46:09.997Z,34.55
2019-03-17T16:48:42.849Z,34.18
2019-03-17T16:51:11.771Z,34.45
2019-03-17T16:53:40.663Z,35.88
2019-03-17T16:56:09.555Z,34.85
2019-03-17T16:58:40.874Z,37.25
2019-03-17T17:01:09.791Z,31.75
2019-03-17T17:03:38.685Z,34.75
2019-03-17T17:06:07.675Z,40.12
2019-03-17T17:08:40.460Z,38.00
2019-03-17T17:11:10.202Z,39.03
2019-03-17T17:13:39.157Z,35.08
2019-03-17T17:16:08.043Z,33.55
2019-03-17T17:18:36.934Z,37.00
2019-03-17T17:21:13.645Z,35.70
2019-03-17T17:23:42.600Z,46.18
2019-03-17T17:26:11.487Z,40.38
2019-03-17T17:28:40.377Z,35.40
2019-03-17T17:31:09.266Z,38.25
2019-03-17T17:33:38.100Z,36.65
2019-03-17T17:36:07.048Z,40.33
2019-03-17T17:38:39.683Z,52.03
2019-03-17T17:41:11.163Z,58.15
2019-03-17T17:43:44.650Z,54.58
2019-03-17T17:46:13.565Z,47.58
2019-03-17T17:48:42.462Z,47.55
2019-03-17T17:51:11.446Z,81.30
2019-03-17T17:53:40.250Z,43.73
2019-03-17T17:56:10.354Z,80.70
2019-03-17T17:58:40.370Z,44.00
2019-03-17T18:01:10.387Z,184.13
2019-03-17T18:03:51.139Z,38.50
2019-03-17T18:06:14.464Z,38.83
2019-03-17T18:08:48.499Z,34.27
2019-03-17T18:11:21.460Z,37.45
2019-03-17T18:13:54.489Z,36.15
2019-03-17T18:16:26.085Z,35.30
2019-03-17T18:18:55.631Z,38.48
2019-03-17T18:21:29.785Z,49.88
2019-03-17T18:23:58.760Z,78.45
2019-03-17T18:26:30.898Z,38.58
2019-03-17T18:28:59.814Z,67.60
2019-03-17T18:31:32.343Z,41.28
2019-03-17T18:34:02.203Z,60.30
2019-03-17T18:36:31.219Z,37.80
2019-03-17T18:39:01.464Z,36.83
2019-03-17T18:41:30.480Z,35.80
2019-03-17T18:44:00.595Z,51.48
2019-03-17T18:46:31.264Z,38.15
2019-03-17T18:49:01.816Z,36.20
2019-03-17T18:51:30.614Z,33.35
2019-03-17T18:53:59.671Z,33.98
2019-03-17T18:56:30.657Z,31.87
2019-03-17T18:58:59.923Z,31.95
2019-03-17T19:01:29.039Z,32.28
2019-03-17T19:03:59.255Z,35.92
2019-03-17T19:06:29.000Z,39.65
2019-03-17T19:08:59.463Z,32.28
2019-03-17T19:11:29.480Z,32.38
2019-03-17T19:14:01.112Z,34.73
2019-03-17T19:16:34.097Z,33.20
2019-03-17T19:19:07.720Z,33.85
2019-03-17T19:21:40.882Z,34.13
2019-03-17T19:24:09.800Z,31.77
2019-03-17T19:26:38.690Z,75.47
2019-03-17T19:29:07.685Z,88.72
2019-03-17T19:31:36.675Z,88.87
2019-03-17T19:34:10.204Z,49.80
2019-03-17T19:36:38.766Z,193.43
2019-03-17T19:39:08.086Z,43.42
2019-03-17T19:41:37.485Z,48.42
2019-03-17T19:44:11.264Z,40.92
2019-03-17T19:46:40.812Z,35.08
2019-03-17T19:49:11.147Z,39.25
2019-03-17T19:51:41.040Z,64.50
2019-03-17T19:54:10.100Z,32.65
2019-03-17T19:56:39.094Z,43.17
2019-03-17T19:59:08.188Z,30.77
2019-03-17T20:01:38.076Z,173.95
2019-03-17T20:04:07.263Z,30.97
2019-03-17T20:06:39.908Z,38.45
2019-03-17T20:09:09.318Z,41.98
2019-03-17T20:11:38.620Z,33.35
2019-03-17T20:14:10.138Z,30.05
2019-03-17T20:16:39.182Z,30.60
2019-03-17T20:19:09.566Z,29.50
2019-03-17T20:21:38.964Z,27.85
2019-03-17T20:24:08.009Z,44.15
2019-03-17T20:26:36.864Z,32.13
2019-03-17T20:29:07.211Z,55.33
2019-03-17T20:31:37.552Z,40.58
2019-03-17T20:34:08.864Z,66.55
2019-03-17T20:36:38.252Z,32.48
2019-03-17T20:39:07.581Z,30.25
2019-03-17T20:41:36.630Z,28.67
2019-03-17T20:44:06.233Z,29.30
2019-03-17T20:46:35.328Z,28.05
2019-03-17T20:49:11.470Z,29.37
2019-03-17T20:51:43.625Z,28.67
2019-03-17T20:54:13.091Z,28.50
2019-03-17T20:56:43.017Z,27.07
2019-03-17T20:59:13.442Z,28.65
2019-03-17T21:01:42.206Z,29.95
2019-03-17T21:04:11.360Z,35.75
2019-03-17T21:06:40.478Z,32.58
2019-03-17T21:09:12.908Z,29.12
2019-03-17T21:11:46.011Z,30.32
2019-03-17T21:14:16.191Z,28.65
2019-03-17T21:16:46.570Z,30.55
2019-03-17T21:19:25.767Z,30.62
2019-03-17T21:21:54.170Z,30.35
2019-03-17T21:24:24.548Z,31.73
2019-03-17T21:26:56.817Z,31.65
2019-03-17T21:29:28.287Z,31.65
2019-03-17T21:32:01.084Z,32.95
2019-03-17T21:34:32.004Z,33.85
2019-03-17T21:37:05.007Z,32.28
2019-03-17T21:39:36.585Z,33.67
2019-03-17T21:42:06.340Z,31.62
2019-03-17T21:44:39.220Z,32.23
2019-03-17T21:47:12.502Z,34.10
2019-03-17T21:49:42.074Z,40.00
2019-03-17T21:52:16.625Z,33.20
2019-03-17T21:54:49.015Z,32.67
2019-03-17T21:57:24.995Z,34.53
2019-03-17T21:59:55.128Z,34.67
2019-03-17T22:02:25.210Z,35.70
2019-03-17T22:04:58.351Z,37.05
2019-03-17T22:07:29.083Z,34.13
2019-03-17T22:10:01.637Z,34.53
2019-03-17T22:12:35.038Z,33.80
2019-03-17T22:15:09.823Z,34.35
2019-03-17T22:17:41.770Z,34.10
2019-03-17T22:20:17.462Z,34.18
2019-03-17T22:22:55.028Z,35.28
2019-03-17T22:25:31.785Z,36.03
2019-03-17T22:28:10.405Z,35.40
2019-03-17T22:30:46.360Z,34.45
2019-03-17T22:33:17.840Z,32.98
2019-03-17T22:35:51.630Z,35.80
2019-03-17T22:41:02.543Z,25.97
2019-03-17T22:43:38.291Z,29.52
2019-03-17T22:46:07.883Z,26.85
2019-03-17T22:48:42.404Z,21.82
2019-03-17T22:51:13.997Z,18.32
2019-03-17T22:53:47.484Z,15.38
2019-03-17T22:56:26.555Z,15.83
2019-03-17T22:58:55.575Z,13.62
2019-03-17T23:01:26.133Z,10.95
2019-03-17T23:03:55.599Z,10.53
2019-03-17T23:06:28.632Z,7.67
2019-03-17T23:09:00.529Z,5.60
2019-03-17T23:11:29.955Z,5.00
2019-03-17T23:14:02.126Z,4.55
2019-03-17T23:16:36.358Z,4.05
2019-03-17T23:19:05.674Z,3.42
2019-03-17T23:21:35.221Z,2.90
2019-03-17T23:24:04.867Z,3.17
2019-03-17T23:26:33.891Z,2.30
2019-03-17T23:29:03.094Z,2.35
2019-03-17T23:31:36.410Z,2.80
2019-03-17T23:34:05.770Z,3.70
2019-03-17T23:36:35.099Z,3.50
2019-03-17T23:39:07.129Z,3.87
2019-03-17T23:41:36.798Z,4.15
2019-03-17T23:44:10.051Z,4.20
2019-03-17T23:46:39.314Z,3.75
2019-03-17T23:49:08.678Z,4.65
2019-03-17T23:51:39.210Z,3.60
2019-03-17T23:54:08.758Z,6.10
2019-03-17T23:56:38.437Z,4.30
2019-03-17T23:59:07.863Z,4.05
